Time;durP1;ratioP1;P1;durP2;ratioP2;P2;SDS_P1;SDS_P2;PMS_P1;PMS_P2;Temp;Humidity;BMP_temperature;BMP_pressure;BME280_temperature;BME280_humidity;BME280_pressure;Samples;Min_cycle;Max_cycle;Signal;HPM_P1;HPM_P2
2023/05/05 00:02:02;;;;;;;6.83;3.73;;;;;;;13.93;70.45;100460.69;5040827;28;20268;-78
2023/05/05 00:04:29;;;;;;;5.60;3.93;;;;;;;13.83;70.68;100448.28;5038783;28;20226;-78
2023/05/05 00:06:56;;;;;;;5.53;4.20;;;;;;;13.71;72.00;100459.81;5026881;28;20229;-78
2023/05/05 00:09:22;;;;;;;5.07;4.07;;;;;;;13.74;72.28;100454.47;5048874;28;20206;-82
2023/05/05 00:11:48;;;;;;;5.03;3.63;;;;;;;13.64;73.08;100450.03;5034538;28;20609;-81
2023/05/05 00:14:15;;;;;;;5.03;3.70;;;;;;;13.57;73.38;100446.44;5040457;28;20222;-82
2023/05/05 00:16:41;;;;;;;6.20;4.00;;;;;;;13.58;74.01;100452.66;5042707;28;20202;-82
2023/05/05 00:19:10;;;;;;;4.33;3.63;;;;;;;13.55;73.67;100458.88;5029067;28;20203;-81
2023/05/05 00:21:37;;;;;;;7.70;3.93;;;;;;;13.55;74.34;100460.63;5048260;28;20284;-82
2023/05/05 00:24:04;;;;;;;5.60;4.33;;;;;;;13.52;74.32;100460.63;5041131;28;20265;-81
2023/05/05 00:26:32;;;;;;;6.60;4.07;;;;;;;13.57;73.08;100466.84;5044974;28;20231;-81
2023/05/05 00:28:59;;;;;;;5.80;3.90;;;;;;;13.49;73.51;100453.53;5036709;28;20257;-81
2023/05/05 00:31:25;;;;;;;5.80;3.80;;;;;;;13.43;74.24;100453.53;5045517;28;20728;-81
2023/05/05 00:33:54;;;;;;;5.13;3.90;;;;;;;13.39;74.78;100444.66;5041751;28;20223;-81
2023/05/05 00:36:21;;;;;;;9.93;3.73;;;;;;;13.38;74.28;100445.53;5039389;28;20203;-81
2023/05/05 00:38:47;;;;;;;7.80;3.87;;;;;;;13.43;74.89;100440.22;5040266;28;20207;-81
2023/05/05 00:41:13;;;;;;;6.33;3.90;;;;;;;13.56;75.27;100444.69;5044177;28;20233;-80
2023/05/05 00:43:39;;;;;;;5.50;3.83;;;;;;;13.57;75.02;100440.25;5042365;28;20292;-79
2023/05/05 00:46:20;;;;;;;7.40;4.20;;;;;;;13.48;74.86;100436.69;5041855;28;20198;-77
2023/05/05 00:48:47;;;;;;;7.30;4.00;;;;;;;13.47;74.55;100432.25;5038418;28;20199;-80
2023/05/05 00:51:15;;;;;;;4.80;3.60;;;;;;;13.37;75.20;100426.91;5038448;28;20234;-79
2023/05/05 00:53:43;;;;;;;4.70;3.73;;;;;;;13.28;75.27;100429.53;5027100;28;20632;-80
2023/05/05 00:56:15;;;;;;;5.37;3.90;;;;;;;13.15;75.54;100418.81;5036023;28;20225;-79
2023/05/05 00:58:42;;;;;;;5.60;4.47;;;;;;;13.22;76.93;100424.22;5040592;28;20195;-80
2023/05/05 01:01:10;;;;;;;5.97;3.83;;;;;;;13.18;77.13;100418.84;5041059;28;20237;-80
2023/05/05 01:03:38;;;;;;;4.83;3.53;;;;;;;13.02;77.99;100416.13;5037986;28;20234;-80
2023/05/05 01:06:26;;;;;;;5.93;3.87;;;;;;;12.88;79.32;100408.09;5032890;28;20195;-81
2023/05/05 01:09:22;;;;;;;7.13;4.37;;;;;;;12.86;79.75;100393.91;5044706;28;20221;-81
2023/05/05 01:12:11;;;;;;;5.40;3.93;;;;;;;12.97;78.40;100388.63;5038166;28;20202;-82
2023/05/05 01:14:42;;;;;;;6.20;3.87;;;;;;;12.95;78.27;100385.97;5034740;28;20205;-82
2023/05/05 01:17:16;;;;;;;5.17;3.67;;;;;;;12.88;78.35;100397.47;5043094;28;20201;-80
2023/05/05 01:20:07;;;;;;;4.33;3.60;;;;;;;12.77;80.11;100394.72;5040066;28;20213;-80
2023/05/05 01:22:44;;;;;;;7.80;4.07;;;;;;;12.80;82.13;100396.53;5047412;28;20229;-81
2023/05/05 01:25:47;;;;;;;5.73;4.00;;;;;;;12.83;81.00;100407.19;5040344;28;20197;-81
2023/05/05 01:28:29;;;;;;;5.13;3.97;;;;;;;12.63;81.90;100414.16;5027542;28;20251;-79
2023/05/05 01:31:05;;;;;;;8.47;3.90;;;;;;;12.48;83.51;100423.84;5038281;28;20289;-79
2023/05/05 01:33:39;;;;;;;5.27;4.57;;;;;;;12.32;85.46;100424.59;5045896;28;20333;-77
2023/05/05 01:36:12;;;;;;;5.40;4.40;;;;;;;12.21;87.51;100428.94;5035661;28;20673;-77
2023/05/05 01:38:41;;;;;;;5.83;3.93;;;;;;;12.22;86.73;100428.06;5034456;28;20227;-77
2023/05/05 01:41:16;;;;;;;6.10;3.73;;;;;;;12.10;87.52;100420.03;5040005;28;20623;-76
2023/05/05 01:43:49;;;;;;;7.17;4.53;;;;;;;12.06;88.77;100419.09;5016299;28;20570;-75
2023/05/05 01:46:17;;;;;;;7.90;4.20;;;;;;;12.06;89.90;100418.22;5042181;28;20208;-74
2023/05/05 01:48:46;;;;;;;7.23;4.53;;;;;;;12.22;92.10;100420.09;5031137;28;20294;-74
2023/05/05 01:51:16;;;;;;;5.17;4.57;;;;;;;12.26;93.62;100421.00;5048052;28;20203;-74
2023/05/05 01:53:43;;;;;;;7.10;5.17;;;;;;;12.37;93.41;100417.53;5043847;28;20221;-74
2023/05/05 01:56:11;;;;;;;6.03;4.90;;;;;;;12.39;93.33;100428.16;5048257;28;20202;-74
2023/05/05 01:58:40;;;;;;;6.60;5.10;;;;;;;12.51;92.69;100415.88;5051562;28;20245;-74
2023/05/05 02:01:07;;;;;;;9.20;5.00;;;;;;;12.44;92.94;100411.41;5038080;28;20223;-74
2023/05/05 02:03:36;;;;;;;8.43;5.17;;;;;;;12.45;94.63;100417.63;5040936;28;20582;-74
2023/05/05 02:06:04;;;;;;;7.63;5.47;;;;;;;12.40;94.76;100430.84;5049943;28;20196;-74
2023/05/05 02:08:33;;;;;;;8.10;5.23;;;;;;;12.37;94.90;100435.25;5030881;28;20227;-74
2023/05/05 02:11:00;;;;;;;8.53;5.80;;;;;;;12.32;97.54;100432.56;5045576;28;20268;-73
2023/05/05 02:13:31;;;;;;;7.40;5.77;;;;;;;12.29;98.89;100436.97;5046126;28;20220;-73
2023/05/05 02:15:58;;;;;;;8.37;5.87;;;;;;;12.18;98.78;100428.91;5043981;28;20206;-73
2023/05/05 02:18:27;;;;;;;6.70;5.13;;;;;;;12.09;99.60;100434.16;5048094;28;20302;-72
2023/05/05 02:20:53;;;;;;;7.80;5.60;;;;;;;12.00;100.00;100440.28;5042394;28;20191;-74
2023/05/05 02:23:20;;;;;;;9.77;6.10;;;;;;;12.08;100.00;100433.28;5038327;28;20224;-73
2023/05/05 02:25:49;;;;;;;9.97;5.83;;;;;;;12.09;100.00;100429.75;5033920;28;20780;-73
2023/05/05 02:28:20;;;;;;;9.27;5.70;;;;;;;12.08;100.00;100443.00;5046513;28;20208;-74
2023/05/05 02:30:54;;;;;;;10.83;6.00;;;;;;;11.98;100.00;100457.06;5049097;28;20233;-73
2023/05/05 02:33:22;;;;;;;8.60;6.23;;;;;;;11.84;100.00;100444.56;5044118;28;20279;-73
2023/05/05 02:35:50;;;;;;;8.83;6.37;;;;;;;11.77;100.00;100450.66;5036692;28;20197;-74
2023/05/05 02:38:18;;;;;;;7.63;6.07;;;;;;;11.69;100.00;100446.16;5032851;28;20224;-74
2023/05/05 02:40:47;;;;;;;9.33;5.83;;;;;;;11.65;100.00;100453.22;5043934;28;20229;-73
2023/05/05 02:43:18;;;;;;;8.37;5.70;;;;;;;11.57;100.00;100449.56;5050410;28;20624;-74
2023/05/05 02:45:45;;;;;;;9.03;5.80;;;;;;;11.78;100.00;100448.94;5047607;28;20790;-73
2023/05/05 02:48:11;;;;;;;9.17;5.87;;;;;;;11.87;100.00;100441.94;5038629;28;20668;-74
2023/05/05 02:50:38;;;;;;;8.37;6.03;;;;;;;11.89;100.00;100449.91;5042322;28;20663;-73
2023/05/05 02:53:05;;;;;;;7.73;6.10;;;;;;;11.89;100.00;100463.19;5047863;28;20250;-73
2023/05/05 02:55:50;;;;;;;9.47;5.67;;;;;;;11.89;100.00;100444.59;5041439;28;20199;-73
2023/05/05 02:58:43;;;;;;;10.27;5.90;;;;;;;11.90;100.00;100460.53;5041534;28;20234;-73
2023/05/05 03:01:48;;;;;;;8.57;5.90;;;;;;;11.95;100.00;100462.34;5029904;28;20232;-73
2023/05/05 03:04:26;;;;;;;7.37;5.90;;;;;;;11.93;100.00;100465.88;4952107;28;20260;-73
2023/05/05 03:06:58;;;;;;;10.10;5.77;;;;;;;11.94;100.00;100464.09;4948727;28;20199;-73
2023/05/05 03:09:26;;;;;;;8.17;6.23;;;;;;;11.93;100.00;100462.31;4996005;28;20261;-74
2023/05/05 03:11:59;;;;;;;7.73;5.90;;;;;;;11.99;100.00;100467.69;5043678;28;20608;-73
2023/05/05 03:14:27;;;;;;;12.20;6.10;;;;;;;12.05;100.00;100466.88;5037366;28;20606;-73
2023/05/05 03:16:59;;;;;;;8.70;5.90;;;;;;;12.01;100.00;100459.75;5041170;28;20200;-74
2023/05/05 03:19:27;;;;;;;9.53;6.20;;;;;;;12.01;100.00;100462.38;5047263;28;20200;-74
2023/05/05 03:21:54;;;;;;;10.87;6.40;;;;;;;12.00;100.00;100457.97;5045304;28;20210;-73
2023/05/05 03:24:20;;;;;;;8.67;5.77;;;;;;;11.92;100.00;100457.91;5045560;28;20329;-73
2023/05/05 03:26:48;;;;;;;9.13;6.10;;;;;;;11.80;100.00;100461.34;5035998;28;20226;-74
2023/05/05 03:29:15;;;;;;;7.20;5.47;;;;;;;11.66;100.00;100452.34;5044116;28;20203;-74
2023/05/05 03:31:41;;;;;;;6.87;5.70;;;;;;;11.57;100.00;100463.72;5026745;28;20195;-73
2023/05/05 03:34:08;;;;;;;7.10;5.57;;;;;;;11.47;100.00;100467.16;5039813;28;20596;-73
2023/05/05 03:36:34;;;;;;;7.73;5.27;;;;;;;11.37;100.00;100464.38;5047374;28;20207;-74
2023/05/05 03:39:01;;;;;;;7.83;5.30;;;;;;;11.27;100.00;100466.94;5039442;28;21263;-74
2023/05/05 03:41:27;;;;;;;7.67;6.23;;;;;;;11.21;100.00;100460.69;5039671;28;20202;-73
2023/05/05 03:43:54;;;;;;;9.70;5.87;;;;;;;11.12;100.00;100463.19;5049495;28;20230;-73
2023/05/05 03:46:20;;;;;;;7.70;5.33;;;;;;;11.05;100.00;100462.22;5040370;28;20208;-74
2023/05/05 03:48:47;;;;;;;8.97;5.50;;;;;;;10.97;100.00;100453.31;5033407;28;20282;-73
2023/05/05 03:51:14;;;;;;;7.30;5.60;;;;;;;10.94;100.00;100458.56;5035384;28;20207;-74
2023/05/05 03:53:40;;;;;;;10.07;5.93;;;;;;;10.89;100.00;100455.84;5038873;28;20225;-73
2023/05/05 03:56:07;;;;;;;8.43;6.30;;;;;;;10.88;100.00;100463.78;5027660;28;20237;-73
2023/05/05 03:58:33;;;;;;;10.30;6.23;;;;;;;10.95;100.00;100469.19;5034011;28;20203;-74
2023/05/05 04:01:00;;;;;;;8.47;5.67;;;;;;;10.87;100.00;100456.72;5042667;28;20226;-73
2023/05/05 04:03:26;;;;;;;8.87;5.93;;;;;;;10.80;100.00;100463.66;5042957;28;20215;-73
2023/05/05 04:05:53;;;;;;;7.43;5.37;;;;;;;10.78;100.00;100461.84;5042902;28;20297;-74
2023/05/05 04:08:19;;;;;;;7.40;5.60;;;;;;;10.74;100.00;100467.97;5043496;28;20199;-73
2023/05/05 04:10:46;;;;;;;9.67;6.40;;;;;;;10.73;100.00;100467.09;5047829;28;20205;-73
2023/05/05 04:13:12;;;;;;;6.83;5.37;;;;;;;10.75;100.00;100473.31;5047598;28;20263;-74
2023/05/05 04:15:44;;;;;;;8.17;5.73;;;;;;;10.78;100.00;100480.41;5045652;28;20198;-73
2023/05/05 04:18:11;;;;;;;9.33;5.70;;;;;;;10.87;100.00;100475.25;5034788;28;20286;-74
2023/05/05 04:20:37;;;;;;;8.00;6.33;;;;;;;11.06;100.00;100482.56;5044031;28;20228;-74
2023/05/05 04:23:03;;;;;;;10.00;6.30;;;;;;;11.39;100.00;100479.44;5042946;28;20254;-73
2023/05/05 04:25:30;;;;;;;9.37;6.60;;;;;;;11.62;100.00;100482.34;5043211;28;20218;-73
2023/05/05 04:27:56;;;;;;;8.63;6.50;;;;;;;11.85;100.00;100483.50;5048445;28;20197;-73
2023/05/05 04:30:23;;;;;;;10.73;6.70;;;;;;;11.90;100.00;100476.47;5041042;28;20744;-73
2023/05/05 04:32:49;;;;;;;8.83;6.10;;;;;;;12.08;100.00;100483.72;5046554;28;20648;-74
2023/05/05 04:35:15;;;;;;;9.20;6.50;;;;;;;12.12;100.00;100480.22;5043923;28;20214;-74
2023/05/05 04:37:42;;;;;;;8.90;6.17;;;;;;;12.25;100.00;100486.50;5036942;28;20256;-74
2023/05/05 04:40:09;;;;;;;9.37;5.93;;;;;;;12.32;100.00;100492.75;5041266;28;20237;-74
2023/05/05 04:42:36;;;;;;;7.43;5.83;;;;;;;12.39;100.00;100482.19;5039356;28;20215;-74
2023/05/05 04:45:03;;;;;;;11.00;6.40;;;;;;;12.45;100.00;100478.72;5047373;28;20251;-74
2023/05/05 04:47:29;;;;;;;10.67;6.20;;;;;;;12.44;100.00;100471.63;5039390;28;20247;-74
2023/05/05 04:49:56;;;;;;;8.63;5.97;;;;;;;12.44;100.00;100477.81;5043707;28;20485;-74
2023/05/05 04:52:22;;;;;;;9.33;6.37;;;;;;;12.37;100.00;100481.28;5041658;28;20235;-73
2023/05/05 04:54:48;;;;;;;9.23;6.03;;;;;;;12.32;100.00;100493.63;5036666;28;20624;-73
2023/05/05 04:57:15;;;;;;;9.00;5.83;;;;;;;12.32;100.00;100492.75;5040688;28;20208;-74
2023/05/05 04:59:41;;;;;;;9.23;5.73;;;;;;;12.30;100.00;100487.44;5041940;28;20568;-74
2023/05/05 05:02:07;;;;;;;7.63;5.57;;;;;;;12.33;100.00;100498.06;5044053;28;20205;-74
2023/05/05 05:04:34;;;;;;;8.60;5.57;;;;;;;12.36;100.00;100499.84;5040738;28;20309;-74
2023/05/05 05:07:00;;;;;;;9.07;5.70;;;;;;;12.44;100.00;100484.91;5035336;28;20228;-74
2023/05/05 05:09:26;;;;;;;8.47;5.87;;;;;;;12.51;100.00;100494.69;5039063;28;20223;-74
2023/05/05 05:11:53;;;;;;;11.50;6.17;;;;;;;12.68;100.00;100485.03;5042216;28;20197;-74
2023/05/05 05:14:19;;;;;;;11.80;7.10;;;;;;;12.73;98.08;100493.03;5049337;28;20221;-73
2023/05/05 05:16:49;;;;;;;10.23;7.60;;;;;;;12.85;97.72;100487.81;5038436;28;20679;-73
2023/05/05 05:19:16;;;;;;;8.17;5.87;;;;;;;12.99;97.41;100496.75;5040203;28;20205;-73
2023/05/05 05:21:42;;;;;;;11.40;6.60;;;;;;;13.14;96.28;100501.25;5034992;28;20232;-74
2023/05/05 05:24:10;;;;;;;8.60;6.33;;;;;;;13.33;95.61;100504.94;5037913;28;20318;-74
2023/05/05 05:26:37;;;;;;;13.47;6.53;;;;;;;13.51;95.44;100504.97;5039126;28;20277;-74
2023/05/05 05:29:03;;;;;;;10.87;7.03;;;;;;;13.85;93.36;100513.06;5032421;28;20214;-76
2023/05/05 05:31:30;;;;;;;9.43;7.30;;;;;;;14.13;91.17;100509.56;5031733;28;20209;-79
2023/05/05 05:33:56;;;;;;;9.40;7.50;;;;;;;14.31;90.26;100512.22;5038472;28;20246;-80
2023/05/05 05:36:23;;;;;;;8.97;6.67;;;;;;;14.49;89.15;100505.16;5043245;28;20210;-79
2023/05/05 05:38:52;;;;;;;8.33;6.73;;;;;;;14.82;88.11;100507.78;5045662;28;20233;-80
2023/05/05 05:41:18;;;;;;;9.57;7.33;;;;;;;14.95;86.88;100512.19;5040920;28;20236;-81
2023/05/05 05:43:45;;;;;;;11.20;7.20;;;;;;;15.01;86.11;100514.84;5040368;28;20253;-81
2023/05/05 05:46:11;;;;;;;11.97;7.37;;;;;;;15.15;85.85;100517.47;5043075;28;20296;-79
2023/05/05 05:48:38;;;;;;;13.53;6.90;;;;;;;15.16;84.80;100519.22;5042461;28;20659;-81
2023/05/05 05:51:04;;;;;;;10.27;6.63;;;;;;;15.04;85.29;100522.84;5040407;28;20676;-80
2023/05/05 05:53:31;;;;;;;9.80;7.10;;;;;;;15.00;85.54;100523.72;5039984;28;20222;-81
2023/05/05 05:55:58;;;;;;;10.80;7.40;;;;;;;14.88;86.53;100526.44;5033671;28;20198;-81
2023/05/05 05:58:24;;;;;;;9.63;7.13;;;;;;;14.96;86.51;100526.41;5038878;28;20199;-81
2023/05/05 06:00:50;;;;;;;10.57;6.83;;;;;;;15.00;86.18;100523.72;5042746;28;20245;-79
2023/05/05 06:03:17;;;;;;;10.77;7.00;;;;;;;15.02;85.96;100521.94;5046395;28;20224;-78
2023/05/05 06:05:44;;;;;;;11.73;7.07;;;;;;;15.04;85.96;100530.84;5019663;28;20349;-77
2023/05/05 06:08:11;;;;;;;11.07;7.03;;;;;;;15.04;85.73;100533.50;5040089;28;20196;-77
2023/05/05 06:10:38;;;;;;;9.50;6.90;;;;;;;15.15;85.86;100533.47;5041825;28;20218;-76
2023/05/05 06:13:05;;;;;;;11.47;7.20;;;;;;;15.31;84.95;100529.88;5046786;28;20264;-76
2023/05/05 06:15:31;;;;;;;9.17;7.03;;;;;;;15.50;83.73;100535.13;5041422;28;20250;-74
2023/05/05 06:17:57;;;;;;;11.13;7.17;;;;;;;15.74;81.30;100529.72;5020602;28;20199;-72
2023/05/05 06:20:24;;;;;;;9.23;7.07;;;;;;;16.02;80.27;100526.88;5046176;28;20210;-72
2023/05/05 06:22:50;;;;;;;14.40;7.47;;;;;;;15.96;79.24;100523.31;5023203;28;20278;-73
2023/05/05 06:25:16;;;;;;;10.50;6.63;;;;;;;16.15;79.35;100523.22;5047477;28;20273;-74
2023/05/05 06:27:43;;;;;;;10.20;6.80;;;;;;;16.29;78.74;100527.56;5050422;28;20194;-73
2023/05/05 06:30:10;;;;;;;8.63;6.77;;;;;;;16.26;78.81;100526.69;5047825;28;20199;-71
2023/05/05 06:32:36;;;;;;;10.43;7.20;;;;;;;16.46;79.13;100527.44;5049053;28;20236;-72
2023/05/05 06:35:03;;;;;;;10.17;6.67;;;;;;;16.65;77.76;100529.94;5046530;28;20199;-74
2023/05/05 06:37:29;;;;;;;12.07;6.63;;;;;;;16.84;77.19;100528.91;5044659;28;20206;-74
2023/05/05 06:39:56;;;;;;;11.13;6.20;;;;;;;17.09;76.58;100529.53;5041707;28;20249;-73
2023/05/05 06:42:22;;;;;;;8.73;6.60;;;;;;;17.27;75.98;100529.34;5030515;28;20257;-72
2023/05/05 06:44:49;;;;;;;10.33;6.90;;;;;;;17.41;75.20;100542.53;5038289;28;20260;-74
2023/05/05 06:47:15;;;;;;;12.87;7.27;;;;;;;17.63;74.08;100532.47;5031710;28;20203;-73
2023/05/05 06:49:41;;;;;;;11.80;7.50;;;;;;;17.88;73.76;100533.91;5041338;28;20194;-71
2023/05/05 06:52:08;;;;;;;11.83;6.87;;;;;;;18.11;72.40;100536.28;5041449;28;20202;-73
2023/05/05 06:54:34;;;;;;;12.23;8.10;;;;;;;18.43;71.57;100535.78;5041951;28;20195;-73
2023/05/05 06:57:01;;;;;;;10.10;7.50;;;;;;;18.84;70.03;100539.59;5046404;28;20191;-73
2023/05/05 06:59:27;;;;;;;9.30;7.60;;;;;;;19.49;68.00;100540.09;5044562;28;20194;-72
2023/05/05 07:01:53;;;;;;;9.77;7.03;;;;;;;21.07;62.70;100539.03;5045468;28;20191;-72
2023/05/05 07:04:20;;;;;;;12.73;7.20;;;;;;;23.78;51.41;100539.25;5037414;28;20223;-72
2023/05/05 07:06:46;;;;;;;13.20;7.95;;;;;;;24.02;48.61;100535.59;5018556;28;20195;-72
2023/05/05 07:09:13;;;;;;;12.05;7.32;;;;;;;22.84;49.10;100539.06;5037157;28;20237;-72
2023/05/05 07:11:42;;;;;;;13.40;7.93;;;;;;;21.97;51.60;100533.75;5047233;28;20201;-72
2023/05/05 07:14:08;;;;;;;10.43;7.45;;;;;;;21.79;53.33;100545.97;5038665;28;20310;-72
2023/05/05 07:16:35;;;;;;;10.20;7.22;;;;;;;21.50;53.82;100546.84;5045205;28;20198;-72
2023/05/05 07:19:05;;;;;;;11.55;7.38;;;;;;;21.16;55.35;100546.88;5036972;28;20202;-70
2023/05/05 07:21:32;;;;;;;14.32;7.80;;;;;;;22.31;52.78;100541.69;5040661;28;20199;-70
2023/05/05 07:23:59;;;;;;;13.20;6.95;;;;;;;23.78;48.74;100541.97;5035856;28;20255;-70
2023/05/05 07:26:26;;;;;;;8.93;7.68;;;;;;;25.21;44.47;100542.34;5042566;28;20222;-70
2023/05/05 07:28:54;;;;;;;13.70;8.07;;;;;;;26.15;41.04;100542.53;5019788;28;20206;-70
2023/05/05 07:31:21;;;;;;;15.18;8.27;;;;;;;26.98;39.30;100539.31;5041467;28;20227;-71
2023/05/05 07:33:48;;;;;;;17.75;9.25;;;;;;;26.57;38.98;100540.50;5041604;28;20219;-71
2023/05/05 07:36:18;;;;;;;15.52;9.20;;;;;;;26.92;39.09;100536.88;5045564;28;20230;-71
2023/05/05 07:38:44;;;;;;;16.27;9.65;;;;;;;26.90;39.05;100540.63;5023500;28;20235;-71
2023/05/05 07:41:11;;;;;;;12.60;9.05;;;;;;;26.19;40.12;100544.13;5040858;28;20257;-70
2023/05/05 07:43:40;;;;;;;15.15;8.35;;;;;;;26.49;40.38;100549.06;5041931;28;20268;-70
2023/05/05 07:46:09;;;;;;;16.55;9.05;;;;;;;26.62;39.27;100543.88;5038325;28;20230;-70
2023/05/05 07:48:36;;;;;;;15.70;9.63;;;;;;;26.23;40.37;100544.84;5041801;28;20241;-70
2023/05/05 07:51:02;;;;;;;16.10;8.75;;;;;;;26.08;40.76;100548.31;5039423;28;20206;-70
2023/05/05 07:53:29;;;;;;;15.70;9.68;;;;;;;25.34;42.47;100548.13;5037865;28;20215;-70
2023/05/05 07:55:56;;;;;;;16.75;9.07;;;;;;;25.67;42.75;100553.88;5026509;28;20244;-70
2023/05/05 07:58:22;;;;;;;19.58;10.63;;;;;;;25.26;43.06;100536.72;5040256;28;20226;-71
2023/05/05 08:00:49;;;;;;;16.05;9.13;;;;;;;25.15;43.34;100539.91;5039586;28;20191;-70
2023/05/05 08:03:18;;;;;;;18.58;10.43;;;;;;;24.62;44.33;100534.94;5037771;28;20219;-70
2023/05/05 08:05:45;;;;;;;20.13;10.35;;;;;;;24.74;44.72;100541.66;5028673;28;20245;-70
2023/05/05 08:08:12;;;;;;;17.80;10.48;;;;;;;23.70;47.40;100547.66;5039555;28;20255;-71
2023/05/05 08:10:38;;;;;;;19.67;10.00;;;;;;;23.00;49.72;100539.41;5041769;28;20230;-70
2023/05/05 08:13:04;;;;;;;18.13;9.57;;;;;;;22.57;50.97;100530.03;5042775;28;20214;-70
2023/05/05 08:15:31;;;;;;;17.75;9.38;;;;;;;22.65;50.98;100527.97;5023620;28;20199;-70
2023/05/05 08:17:57;;;;;;;19.80;9.32;;;;;;;22.98;50.53;100534.06;5041976;28;20197;-70
2023/05/05 08:20:26;;;;;;;16.60;8.13;;;;;;;;;;5043122;28;20202;-70
2023/05/05 08:22:53;;;;;;;16.33;8.57;;;;;;;23.41;49.99;100544.19;5043010;28;20841;-70
2023/05/05 08:25:19;;;;;;;15.20;7.97;;;;;;;23.64;50.00;100535.28;5041811;28;20223;-70
2023/05/05 08:27:45;;;;;;;15.43;7.82;;;;;;;23.85;49.63;100530.84;5040818;28;20654;-70
2023/05/05 08:30:12;;;;;;;18.85;9.30;;;;;;;23.97;48.94;100538.47;5033760;28;20581;-70
2023/05/05 08:32:38;;;;;;;11.00;6.53;;;;;;;24.18;49.39;100535.88;5045242;28;20230;-70
2023/05/05 08:35:05;;;;;;;9.57;6.10;;;;;;;24.22;48.95;100535.69;5035062;28;20219;-70
2023/05/05 08:37:33;;;;;;;14.23;7.82;;;;;;;24.00;48.85;100535.63;5042244;28;20252;-71
2023/05/05 08:39:59;;;;;;;7.80;5.82;;;;;;;23.74;50.17;100531.25;5049298;28;20195;-70
2023/05/05 08:42:25;;;;;;;6.90;5.60;;;;;;;23.95;50.35;100528.66;5039229;28;20207;-70
2023/05/05 08:45:04;;;;;;;14.02;6.40;;;;;;;23.76;50.97;100533.91;5045324;28;20257;-70
2023/05/05 08:47:31;;;;;;;12.93;6.53;;;;;;;23.93;50.75;100527.81;5034440;28;20199;-70
2023/05/05 08:49:58;;;;;;;10.38;6.63;;;;;;;24.02;49.87;100528.38;5038140;28;20230;-70
2023/05/05 08:52:30;;;;;;;10.55;6.60;;;;;;;24.11;49.33;100520.81;5033958;28;20202;-72
2023/05/05 08:55:11;;;;;;;11.10;7.30;;;;;;;24.23;49.14;100525.72;5045630;28;20206;-73
2023/05/05 08:57:53;;;;;;;9.52;6.60;;;;;;;24.58;48.32;100517.06;5045412;28;20249;-73
2023/05/05 09:00:20;;;;;;;13.75;6.57;;;;;;;24.48;48.11;100512.09;5037826;28;20195;-72
2023/05/05 09:02:47;;;;;;;9.10;6.20;;;;;;;24.78;47.20;100515.31;5039431;28;20230;-74
2023/05/05 09:05:14;;;;;;;8.02;6.00;;;;;;;24.96;46.60;100510.00;5053864;28;20219;-74
2023/05/05 09:07:42;;;;;;;9.32;5.60;;;;;;;25.09;45.83;100513.06;5045421;28;20194;-74
2023/05/05 09:10:10;;;;;;;12.25;5.85;;;;;;;25.24;45.48;100506.09;5048888;28;20230;-74
2023/05/05 09:12:40;;;;;;;5.68;4.55;;;;;;;25.30;45.55;100508.53;5049074;28;20316;-74
2023/05/05 09:15:10;;;;;;;8.65;3.90;;;;;;;25.64;44.38;100509.69;5048861;28;20195;-74
2023/05/05 09:17:37;;;;;;;4.88;3.47;;;;;;;25.68;43.65;100504.09;5053436;28;20195;-74
2023/05/05 09:20:12;;;;;;;5.63;3.65;;;;;;;25.78;43.51;100501.81;5040532;28;20667;-74
2023/05/05 09:22:40;;;;;;;6.07;3.50;;;;;;;26.00;42.55;100498.94;5041982;28;20218;-71
2023/05/05 09:25:14;;;;;;;5.57;3.28;;;;;;;26.17;42.95;100499.00;5043179;28;20633;-71
2023/05/05 09:27:48;;;;;;;5.80;3.65;;;;;;;26.44;43.56;100505.81;5046230;28;20214;-71
2023/05/05 09:30:17;;;;;;;3.67;3.22;;;;;;;25.86;43.72;100503.19;5043384;28;20603;-71
2023/05/05 09:32:43;;;;;;;4.25;3.33;;;;;;;25.75;43.65;100502.84;5040538;28;20219;-71
2023/05/05 09:35:10;;;;;;;4.45;3.22;;;;;;;25.91;43.72;100494.84;5028906;28;20237;-71
2023/05/05 09:37:37;;;;;;;4.32;2.90;;;;;;;25.97;43.23;100497.25;5047911;28;20644;-71
2023/05/05 09:40:04;;;;;;;3.83;3.10;;;;;;;25.83;42.12;100495.19;5037755;28;20612;-71
2023/05/05 09:42:31;;;;;;;3.08;2.72;;;;;;;25.99;42.18;100499.88;5025987;28;20257;-71
2023/05/05 09:44:57;;;;;;;3.95;2.75;;;;;;;26.25;42.04;100488.63;5043999;28;20226;-71
2023/05/05 09:47:36;;;;;;;2.83;2.45;;;;;;;26.43;40.55;100484.16;5046135;28;20289;-71
2023/05/05 09:50:03;;;;;;;4.13;2.50;;;;;;;26.40;40.41;100489.72;5041668;28;20199;-71
2023/05/05 09:52:29;;;;;;;4.82;2.35;;;;;;;26.34;39.72;100490.03;5036728;28;20215;-71
2023/05/05 09:54:56;;;;;;;4.20;2.28;;;;;;;26.34;40.61;100485.47;5040865;28;20192;-71
2023/05/05 09:57:32;;;;;;;2.97;2.40;;;;;;;26.09;39.50;100485.81;5040559;28;20610;-69
2023/05/05 10:00:00;;;;;;;3.08;2.30;;;;;;;26.23;39.43;100476.97;5044347;28;20195;-69
2023/05/05 10:02:36;;;;;;;2.67;1.77;;;;;;;26.38;37.82;100470.78;5044442;28;20227;-70
2023/05/05 10:05:11;;;;;;;3.13;1.85;;;;;;;26.57;37.58;100478.91;5041592;28;20199;-71
2023/05/05 10:07:40;;;;;;;3.30;1.75;;;;;;;26.65;38.16;100473.94;5039524;28;20204;-71
2023/05/05 10:10:10;;;;;;;4.50;2.30;;;;;;;26.88;37.97;100474.59;5035927;28;20191;-71
2023/05/05 10:12:37;;;;;;;1.75;1.58;;;;;;;27.30;37.03;100476.91;5045225;28;20215;-71
2023/05/05 10:15:06;;;;;;;4.55;1.83;;;;;;;27.10;36.63;100477.97;5039640;28;20202;-70
2023/05/05 10:17:44;;;;;;;2.75;1.30;;;;;;;27.32;35.27;100474.97;5046834;28;20195;-71
2023/05/05 10:20:32;;;;;;;4.15;1.60;;;;;;;27.41;35.26;100471.75;5040217;28;20728;-71
2023/05/05 10:23:01;;;;;;;1.50;1.40;;;;;;;27.21;34.82;100471.94;5043611;28;20293;-72
2023/05/05 10:25:32;;;;;;;1.77;1.33;;;;;;;27.37;34.99;100462.00;5038779;28;20305;-71
2023/05/05 10:28:01;;;;;;;1.98;1.50;;;;;;;27.57;34.15;100461.75;5048039;28;20190;-71
2023/05/05 10:30:30;;;;;;;2.85;1.52;;;;;;;27.70;32.72;100462.00;5045785;28;20231;-71
2023/05/05 10:33:12;;;;;;;4.20;1.30;;;;;;;27.54;32.39;100469.22;5043096;28;20261;-71
2023/05/05 10:36:00;;;;;;;1.48;0.90;;;;;;;27.89;29.54;100459.09;5044046;28;20234;-72
2023/05/05 10:38:29;;;;;;;3.80;1.10;;;;;;;27.94;30.58;100470.59;5044165;28;20213;-71
2023/05/05 10:41:00;;;;;;;1.67;1.02;;;;;;;28.23;30.24;100458.03;5044867;28;20236;-72
2023/05/05 10:43:29;;;;;;;2.75;1.00;;;;;;;28.78;30.71;100457.50;5027097;28;20215;-72
2023/05/05 10:45:56;;;;;;;1.70;1.10;;;;;;;29.03;29.55;100452.31;5041793;28;20223;-72
2023/05/05 10:49:03;;;;;;;1.67;1.00;;;;;;;28.98;29.94;100454.47;5039781;28;20204;-72
2023/05/05 10:51:43;;;;;;;1.52;1.00;;;;;;;28.64;28.48;100439.25;4987127;28;20201;-71
2023/05/05 10:54:19;;;;;;;1.80;1.00;;;;;;;27.80;29.33;100451.47;5035330;28;20219;-72
2023/05/05 10:56:45;;;;;;;1.80;1.15;;;;;;;27.61;30.00;100457.03;5041951;28;20198;-72
2023/05/05 10:59:37;;;;;;;1.42;0.80;;;;;;;28.32;28.20;100449.34;5045354;28;20305;-72
2023/05/05 11:02:23;;;;;;;1.30;1.00;;;;;;;28.62;28.02;100452.97;5042032;28;20595;-72
2023/05/05 11:05:16;;;;;;;2.80;1.10;;;;;;;28.36;29.54;100440.03;5037659;28;20647;-72
2023/05/05 11:07:45;;;;;;;2.35;1.02;;;;;;;27.86;31.27;100438.38;5045116;28;20481;-73
2023/05/05 11:10:13;;;;;;;1.58;0.95;;;;;;;27.61;30.91;100429.81;5024830;28;20207;-71
2023/05/05 11:13:01;;;;;;;1.05;0.95;;;;;;;27.95;30.57;100426.06;5046093;28;20293;-71
2023/05/05 11:15:28;;;;;;;1.70;1.00;;;;;;;27.80;30.70;100429.69;5039275;28;20237;-72
2023/05/05 11:17:59;;;;;;;1.52;1.02;;;;;;;27.65;31.05;100428.72;5043040;28;20606;-70
2023/05/05 11:20:38;;;;;;;1.20;1.05;;;;;;;27.75;31.55;100422.66;5038078;28;20200;-70
2023/05/05 11:23:05;;;;;;;2.65;1.20;;;;;;;27.82;31.76;100423.19;5043249;28;20215;-71
2023/05/05 11:25:34;;;;;;;1.92;1.38;;;;;;;28.29;31.28;100423.16;5043890;28;20222;-72
2023/05/05 11:28:07;;;;;;;1.95;1.17;;;;;;;28.14;29.40;100407.72;5040546;28;20199;-70
2023/05/05 11:30:34;;;;;;;2.45;0.90;;;;;;;27.71;29.77;100412.94;5044577;28;20206;-71
2023/05/05 11:33:35;;;;;;;2.15;0.80;;;;;;;28.15;29.31;100406.75;5027195;28;20373;-71